Time;durP1;ratioP1;P1;durP2;ratioP2;P2;SDS_P1;SDS_P2;PMS_P1;PMS_P2;Temp;Humidity;BMP_temperature;BMP_pressure;BME280_temperature;BME280_humidity;BME280_pressure;Samples;Min_cycle;Max_cycle;Signal;HPM_P1;HPM_P2
2023/09/07 00:01:03;;;;;;;8.90;6.50;;;;;;;13.36;86.27;101452.11;105208;1257;72500;-62
2023/09/07 00:03:40;;;;;;;9.10;6.00;;;;;;;13.32;86.36;101449.41;105080;1258;69234;-62
2023/09/07 00:06:08;;;;;;;13.60;7.70;;;;;;;13.29;86.28;101446.39;105248;1257;69082;-62
2023/09/07 00:08:35;;;;;;;15.90;8.10;;;;;;;13.25;86.42;101446.30;105148;1258;75673;-63
2023/09/07 00:11:04;;;;;;;12.00;7.50;;;;;;;13.23;86.44;101447.57;105322;1261;83184;-63
2023/09/07 00:13:32;;;;;;;14.70;8.20;;;;;;;13.21;86.42;101451.15;105162;1260;73638;-63
2023/09/07 00:16:00;;;;;;;14.50;8.00;;;;;;;13.17;86.27;101455.66;105346;1257;69203;-62
2023/09/07 00:18:28;;;;;;;12.40;7.40;;;;;;;13.11;86.20;101453.19;105229;1261;69201;-62
2023/09/07 00:20:56;;;;;;;15.00;8.40;;;;;;;13.07;86.32;101452.27;105224;1262;75859;-62
2023/09/07 00:23:23;;;;;;;14.20;7.70;;;;;;;13.04;86.36;101456.40;105165;1260;83393;-62
2023/09/07 00:25:49;;;;;;;16.00;8.80;;;;;;;13.02;86.41;101456.98;105168;1260;72735;-62
2023/09/07 00:28:16;;;;;;;13.90;7.30;;;;;;;13.01;86.58;101457.21;105218;1258;69116;-62
2023/09/07 00:30:43;;;;;;;13.20;7.60;;;;;;;12.98;86.78;101457.28;105179;1261;69145;-62
2023/09/07 00:33:10;;;;;;;16.50;7.80;;;;;;;12.96;86.86;101452.95;105138;1261;74486;-62
2023/09/07 00:35:38;;;;;;;13.90;7.50;;;;;;;12.94;86.95;101448.98;105217;1261;83318;-62
2023/09/07 00:38:05;;;;;;;11.70;7.10;;;;;;;12.92;87.09;101449.77;105164;1258;72607;-62
2023/09/07 00:40:32;;;;;;;9.00;6.40;;;;;;;12.89;86.93;101448.63;105038;1257;69091;-62
2023/09/07 00:42:59;;;;;;;9.20;6.40;;;;;;;12.84;86.83;101449.83;105077;1263;69121;-62
2023/09/07 00:45:27;;;;;;;10.30;6.60;;;;;;;12.78;86.72;101446.14;105224;1260;75847;-62
2023/09/07 00:47:54;;;;;;;10.00;6.60;;;;;;;12.72;86.80;101441.92;105114;1261;83435;-62
2023/09/07 00:50:23;;;;;;;12.40;6.40;;;;;;;12.67;86.76;101439.45;105196;1257;72723;-62
2023/09/07 00:52:50;;;;;;;8.20;5.50;;;;;;;12.65;86.89;101436.35;105041;1261;69325;-62
2023/09/07 00:55:17;;;;;;;9.10;6.00;;;;;;;12.62;87.04;101439.05;105199;1261;69159;-62
2023/09/07 00:57:44;;;;;;;10.40;6.30;;;;;;;12.60;87.23;101441.38;105052;1258;75632;-62
2023/09/07 01:00:12;;;;;;;10.00;6.40;;;;;;;12.59;87.35;101441.95;105148;1261;83556;-62
2023/09/07 01:02:39;;;;;;;12.30;6.60;;;;;;;12.56;87.29;101442.73;105110;1261;73567;-62
2023/09/07 01:05:07;;;;;;;9.90;7.30;;;;;;;12.54;87.27;101442.11;105145;1261;69189;-62
2023/09/07 01:07:45;;;;;;;13.50;7.90;;;;;;;12.52;87.36;101442.16;105189;1260;69315;-62
2023/09/07 01:10:13;;;;;;;12.10;7.90;;;;;;;12.49;87.49;101440.98;105110;1257;75370;-63
2023/09/07 01:12:40;;;;;;;9.80;6.80;;;;;;;12.47;87.52;101440.19;105103;1261;83290;-62
2023/09/07 01:15:08;;;;;;;11.90;7.40;;;;;;;12.44;87.42;101442.90;105094;1261;73653;-62
2023/09/07 01:17:36;;;;;;;13.40;8.40;;;;;;;12.43;87.69;101448.70;105139;1262;69157;-62
2023/09/07 01:20:09;;;;;;;12.10;8.10;;;;;;;12.43;87.73;101446.97;105173;1260;69212;-62
2023/09/07 01:22:37;;;;;;;10.80;8.10;;;;;;;12.39;87.73;101445.85;105161;1262;75877;-62
2023/09/07 01:25:06;;;;;;;11.30;6.80;;;;;;;12.37;87.77;101445.37;105152;1261;83584;-62
2023/09/07 01:27:34;;;;;;;10.30;8.00;;;;;;;12.36;87.75;101442.61;105126;1260;73567;-62
2023/09/07 01:30:02;;;;;;;10.00;7.60;;;;;;;12.34;87.90;101446.33;105245;1260;69211;-63
2023/09/07 01:32:30;;;;;;;12.60;7.40;;;;;;;12.35;88.11;101452.28;105128;1260;69173;-62
2023/09/07 01:34:58;;;;;;;10.80;7.00;;;;;;;12.33;88.02;101448.46;105149;1261;74560;-62
2023/09/07 01:37:25;;;;;;;12.90;7.30;;;;;;;12.32;88.15;101450.08;105161;1260;82191;-62
2023/09/07 01:39:53;;;;;;;8.70;6.60;;;;;;;12.29;88.11;101452.96;105137;1257;72662;-63
2023/09/07 01:42:21;;;;;;;8.40;6.70;;;;;;;12.27;88.19;101455.81;105121;1257;69183;-62
2023/09/07 01:44:48;;;;;;;9.90;6.90;;;;;;;12.25;88.14;101451.48;105317;1261;69122;-62
2023/09/07 01:47:15;;;;;;;9.40;6.60;;;;;;;12.24;88.14;101455.89;105260;1257;75826;-62
2023/09/07 01:49:43;;;;;;;9.80;6.40;;;;;;;12.22;88.12;101456.13;105275;1257;83255;-63
2023/09/07 01:52:10;;;;;;;9.80;6.20;;;;;;;12.20;88.16;101457.77;105175;1257;72739;-62
2023/09/07 01:54:37;;;;;;;8.50;6.20;;;;;;;12.19;88.15;101460.06;105246;1270;69118;-62
2023/09/07 01:57:04;;;;;;;8.00;6.50;;;;;;;12.19;88.33;101463.39;105161;1261;69180;-63
2023/09/07 01:59:31;;;;;;;8.10;6.20;;;;;;;12.17;88.36;101459.39;105081;1257;75613;-62
2023/09/07 02:01:58;;;;;;;8.50;6.10;;;;;;;12.14;88.25;101456.52;105158;1261;83182;-62
2023/09/07 02:04:25;;;;;;;9.20;6.40;;;;;;;12.12;88.47;101456.94;105104;1257;73849;-63
2023/09/07 02:06:52;;;;;;;9.30;6.40;;;;;;;12.11;88.54;101457.48;105162;1261;69116;-62
2023/09/07 02:09:19;;;;;;;8.20;6.20;;;;;;;12.09;88.48;101459.11;105238;1262;69206;-62
2023/09/07 02:11:46;;;;;;;9.80;6.70;;;;;;;12.06;88.46;101453.74;105086;1258;74685;-62
2023/09/07 02:14:13;;;;;;;10.00;6.70;;;;;;;12.06;88.75;101452.54;105159;1260;82473;-62
2023/09/07 02:16:40;;;;;;;8.70;6.50;;;;;;;12.05;88.69;101451.15;105131;1258;73830;-62
2023/09/07 02:19:07;;;;;;;8.80;6.30;;;;;;;12.03;88.73;101447.70;105155;1261;69189;-63
2023/09/07 02:21:34;;;;;;;7.50;6.20;;;;;;;12.03;88.73;101449.99;105066;1261;69138;-62
2023/09/07 02:24:03;;;;;;;8.80;5.70;;;;;;;12.01;88.91;101448.11;105221;1260;75617;-62
2023/09/07 02:26:29;;;;;;;7.80;6.10;;;;;;;12.00;89.00;101450.93;105115;1260;83658;-62
2023/09/07 02:28:57;;;;;;;8.10;6.00;;;;;;;11.99;89.02;101451.31;105160;1257;73738;-62
2023/09/07 02:31:25;;;;;;;8.90;6.60;;;;;;;11.98;89.09;101450.63;105243;1260;69125;-62
2023/09/07 02:33:52;;;;;;;7.90;5.80;;;;;;;11.97;89.12;101453.11;105227;1257;69183;-62
2023/09/07 02:36:19;;;;;;;6.50;5.40;;;;;;;11.94;88.98;101451.25;105227;1257;75727;-62
2023/09/07 02:38:46;;;;;;;8.50;6.00;;;;;;;11.91;88.92;101447.66;105158;1261;83528;-62
2023/09/07 02:41:13;;;;;;;8.80;5.30;;;;;;;11.89;88.97;101451.23;105149;1256;73728;-62
2023/09/07 02:43:40;;;;;;;7.40;5.40;;;;;;;11.87;88.90;101452.15;105174;1260;69301;-63
2023/09/07 02:46:07;;;;;;;8.20;6.50;;;;;;;11.86;89.10;101454.09;105160;1261;69912;-62
2023/09/07 02:48:35;;;;;;;9.00;5.60;;;;;;;11.85;89.33;101455.15;105192;1261;74755;-62
2023/09/07 02:51:03;;;;;;;8.20;6.20;;;;;;;11.84;89.36;101457.61;105202;1258;82208;-62
2023/09/07 02:53:30;;;;;;;9.00;5.80;;;;;;;11.82;89.23;101459.23;105168;1257;73814;-63
2023/09/07 02:55:57;;;;;;;7.90;5.60;;;;;;;11.81;89.37;101461.52;105147;1261;69130;-62
2023/09/07 02:58:25;;;;;;;7.90;5.40;;;;;;;11.80;89.34;101462.08;105219;1257;69201;-62
2023/09/07 03:00:53;;;;;;;7.70;5.60;;;;;;;11.79;89.54;101461.05;105235;1258;75719;-62
2023/09/07 03:03:20;;;;;;;7.60;5.90;;;;;;;11.79;89.52;101456.88;105243;1260;81657;-62
2023/09/07 03:05:48;;;;;;;9.80;5.80;;;;;;;11.76;89.39;101461.13;105167;1261;72585;-62
2023/09/07 03:08:15;;;;;;;8.00;5.70;;;;;;;11.74;89.51;101459.80;105232;1258;69132;-62
2023/09/07 03:10:43;;;;;;;8.40;5.80;;;;;;;11.74;89.54;101462.26;105159;1260;69752;-62
2023/09/07 03:13:09;;;;;;;8.40;6.00;;;;;;;11.72;89.68;101463.88;105067;1257;75885;-62
2023/09/07 03:15:37;;;;;;;10.00;5.70;;;;;;;11.71;89.80;101461.09;105296;1260;83290;-62
2023/09/07 03:18:06;;;;;;;9.70;6.30;;;;;;;11.70;89.93;101463.05;105176;1260;73848;-62
2023/09/07 03:20:34;;;;;;;9.10;6.10;;;;;;;11.69;89.73;101459.58;105401;1258;69164;-62
2023/09/07 03:23:03;;;;;;;6.30;5.20;;;;;;;11.67;89.70;101461.20;105230;1260;69126;-62
2023/09/07 03:25:30;;;;;;;7.90;5.30;;;;;;;11.65;89.74;101462.98;105224;1257;75054;-62
2023/09/07 03:27:57;;;;;;;7.40;5.40;;;;;;;11.65;89.97;101460.73;105168;1257;83336;-62
2023/09/07 03:30:24;;;;;;;8.30;5.70;;;;;;;11.64;89.80;101462.48;105041;1257;72736;-62
2023/09/07 03:32:52;;;;;;;7.70;6.10;;;;;;;11.61;89.83;101463.25;105189;1256;69291;-62
2023/09/07 03:35:20;;;;;;;7.40;5.60;;;;;;;11.60;89.79;101459.40;105221;1256;69156;-62
2023/09/07 03:37:47;;;;;;;8.60;5.40;;;;;;;11.59;89.93;101460.49;105206;1257;75673;-63
2023/09/07 03:40:14;;;;;;;7.20;5.60;;;;;;;11.58;90.01;101462.10;105166;1260;83554;-62
2023/09/07 03:42:43;;;;;;;8.60;5.70;;;;;;;11.58;90.08;101463.50;105190;1257;72567;-62
2023/09/07 03:45:11;;;;;;;7.90;6.20;;;;;;;11.57;90.03;101465.80;105126;1260;69279;-62
2023/09/07 03:47:38;;;;;;;8.90;5.70;;;;;;;11.56;90.00;101467.60;105233;1257;69155;-62
2023/09/07 03:50:06;;;;;;;10.40;6.20;;;;;;;11.54;90.21;101465.88;105223;1256;75505;-63
2023/09/07 03:52:33;;;;;;;8.20;5.40;;;;;;;11.55;90.20;101467.96;105216;1258;82406;-63
2023/09/07 03:55:02;;;;;;;6.30;5.50;;;;;;;11.53;90.19;101468.19;105209;1257;73333;-63
2023/09/07 03:57:30;;;;;;;7.60;5.30;;;;;;;11.52;90.36;101468.38;105220;1258;69119;-62
2023/09/07 03:59:58;;;;;;;7.20;5.40;;;;;;;11.52;90.33;101471.88;105177;1260;69659;-62
2023/09/07 04:02:25;;;;;;;11.00;5.60;;;;;;;11.50;90.36;101470.19;105237;1260;75738;-62
2023/09/07 04:04:55;;;;;;;7.10;5.40;;;;;;;11.46;90.10;101468.88;105245;1256;83235;-62
2023/09/07 04:07:22;;;;;;;7.90;5.20;;;;;;;11.44;90.22;101471.02;105227;1255;72612;-62
2023/09/07 04:09:50;;;;;;;9.00;5.60;;;;;;;11.42;90.29;101473.00;105168;1260;69258;-62
2023/09/07 04:12:17;;;;;;;11.20;5.70;;;;;;;11.40;90.41;101477.95;105181;1260;69185;-62
2023/09/07 04:14:44;;;;;;;9.40;5.30;;;;;;;11.38;90.27;101477.45;105184;1258;75559;-62
2023/09/07 04:17:11;;;;;;;6.50;5.10;;;;;;;11.37;90.27;101481.16;105163;1257;83570;-62
2023/09/07 04:19:38;;;;;;;7.40;5.40;;;;;;;11.35;90.29;101482.60;105185;1260;73644;-62
2023/09/07 04:22:06;;;;;;;8.60;5.30;;;;;;;11.35;90.31;101484.87;105141;1260;69184;-63
2023/09/07 04:24:33;;;;;;;8.10;6.00;;;;;;;11.34;90.36;101487.00;105156;1260;69170;-62
2023/09/07 04:27:01;;;;;;;8.10;6.20;;;;;;;11.33;90.52;101482.46;105172;1256;74683;-62
2023/09/07 04:29:30;;;;;;;8.80;6.00;;;;;;;11.34;90.49;101486.65;105278;1257;83556;-62
2023/09/07 04:31:57;;;;;;;8.70;5.90;;;;;;;11.34;90.66;101485.95;105265;1260;71681;-62
2023/09/07 04:34:24;;;;;;;7.90;5.60;;;;;;;11.34;90.64;101485.44;105204;1256;69221;-62
2023/09/07 04:36:52;;;;;;;7.80;6.00;;;;;;;11.34;90.78;101487.53;105220;1256;69216;-63
2023/09/07 04:39:19;;;;;;;7.70;6.20;;;;;;;11.35;90.74;101488.04;105119;1256;75546;-62
2023/09/07 04:41:46;;;;;;;7.80;6.30;;;;;;;11.35;90.84;101490.13;105233;1256;83289;-62
2023/09/07 04:44:14;;;;;;;8.10;6.20;;;;;;;11.35;90.93;101490.13;105168;1256;72882;-62
2023/09/07 04:46:41;;;;;;;7.90;5.70;;;;;;;11.35;91.16;101489.95;105183;1256;69186;-62
2023/09/07 04:49:09;;;;;;;7.50;6.20;;;;;;;11.36;91.09;101492.02;105341;1260;69279;-62
2023/09/07 04:51:37;;;;;;;8.30;6.30;;;;;;;11.38;91.28;101498.10;105209;1260;74666;-62
2023/09/07 04:54:04;;;;;;;7.60;6.50;;;;;;;11.41;91.52;101498.91;105298;1260;83635;-62
2023/09/07 04:56:31;;;;;;;9.00;6.70;;;;;;;11.44;91.40;101502.19;105204;1260;73897;-63
2023/09/07 04:58:58;;;;;;;9.70;6.10;;;;;;;11.45;91.70;101501.45;105169;1256;69262;-62
2023/09/07 05:01:25;;;;;;;7.50;6.10;;;;;;;11.49;91.90;101504.86;105226;1257;69122;-63
2023/09/07 05:03:54;;;;;;;7.40;6.40;;;;;;;11.53;91.96;101505.11;105239;1257;75686;-63
2023/09/07 05:06:22;;;;;;;10.80;7.10;;;;;;;11.56;92.11;101502.93;105259;1257;83572;-62
2023/09/07 05:08:50;;;;;;;10.60;6.90;;;;;;;11.60;92.32;101501.97;105063;1260;73439;-62
2023/09/07 05:11:17;;;;;;;11.80;7.00;;;;;;;11.66;92.56;101500.08;105186;1260;69166;-62
2023/09/07 05:13:44;;;;;;;9.10;6.80;;;;;;;11.71;92.62;101501.70;105190;1257;69125;-62
2023/09/07 05:16:11;;;;;;;12.10;7.20;;;;;;;11.77;92.82;101504.73;105194;1257;73649;-62
2023/09/07 05:18:41;;;;;;;9.60;7.00;;;;;;;11.82;92.99;101504.07;105206;1260;83362;-62
2023/09/07 05:21:13;;;;;;;12.10;7.20;;;;;;;11.88;92.98;101508.70;105162;1256;73896;-62
2023/09/07 05:23:41;;;;;;;9.00;6.80;;;;;;;11.94;93.11;101506.43;105099;1260;69225;-62
2023/09/07 05:26:08;;;;;;;8.60;7.40;;;;;;;12.01;93.21;101506.27;105227;1256;69157;-62
2023/09/07 05:28:35;;;;;;;11.00;7.80;;;;;;;12.09;93.52;101510.45;105205;1260;74578;-62
2023/09/07 05:31:02;;;;;;;10.20;7.50;;;;;;;12.17;93.70;101508.66;105165;1260;82441;-62
2023/09/07 05:33:30;;;;;;;8.30;7.00;;;;;;;12.25;93.92;101511.23;105216;1260;73670;-62
2023/09/07 05:35:57;;;;;;;9.50;7.10;;;;;;;12.34;94.03;101516.08;105201;1256;69131;-63
2023/09/07 05:38:24;;;;;;;8.60;6.20;;;;;;;12.43;94.30;101516.92;105074;1256;69228;-62
2023/09/07 05:40:54;;;;;;;8.70;7.00;;;;;;;12.53;94.52;101520.67;105197;1257;74735;-62
2023/09/07 05:43:22;;;;;;;10.70;6.90;;;;;;;12.65;95.03;101517.19;105195;1257;83244;-63
2023/09/07 05:45:49;;;;;;;9.40;7.30;;;;;;;12.77;95.68;101518.95;105185;1260;73685;-62
2023/09/07 05:48:16;;;;;;;8.10;7.30;;;;;;;12.90;96.08;101518.77;105170;1256;69163;-62
2023/09/07 05:50:44;;;;;;;9.20;7.00;;;;;;;13.01;96.25;101519.66;105191;1260;69445;-62
2023/09/07 05:53:12;;;;;;;9.90;7.10;;;;;;;13.11;96.36;101520.93;105250;1256;74605;-62
2023/09/07 05:55:39;;;;;;;7.60;6.50;;;;;;;13.22;96.51;101519.05;105181;1256;83611;-62
2023/09/07 05:58:07;;;;;;;9.50;7.60;;;;;;;13.31;96.51;101520.02;105060;1257;73479;-62
2023/09/07 06:00:38;;;;;;;8.10;7.20;;;;;;;13.42;96.74;101519.35;105153;1257;69177;-63
2023/09/07 06:03:07;;;;;;;10.80;7.10;;;;;;;13.52;96.60;101520.45;105135;1262;69301;-62
2023/09/07 06:05:36;;;;;;;10.20;7.20;;;;;;;13.62;96.59;101521.53;105214;1256;74259;-63
2023/09/07 06:08:04;;;;;;;11.40;8.70;;;;;;;13.71;96.63;101523.69;105194;1260;83172;-63
2023/09/07 06:10:31;;;;;;;9.00;7.30;;;;;;;13.81;97.03;101525.13;105213;1260;72558;-62
2023/09/07 06:12:58;;;;;;;10.50;8.10;;;;;;;13.92;97.21;101526.70;105188;1260;69222;-63
2023/09/07 06:15:29;;;;;;;8.70;7.60;;;;;;;14.03;97.40;101530.91;105168;1260;69192;-63
2023/09/07 06:17:56;;;;;;;11.70;8.20;;;;;;;14.14;97.40;101532.31;105208;1256;75864;-63
2023/09/07 06:20:23;;;;;;;11.40;8.00;;;;;;;14.24;97.41;101530.91;105168;1256;83556;-63
2023/09/07 06:22:51;;;;;;;9.90;8.40;;;;;;;14.33;97.33;101531.29;105258;1256;73621;-63
2023/09/07 06:25:18;;;;;;;10.40;8.10;;;;;;;14.44;97.40;101531.98;105187;1257;69270;-63
2023/09/07 06:27:45;;;;;;;9.70;7.90;;;;;;;14.55;97.30;101528.11;105248;1260;69126;-63
2023/09/07 06:30:12;;;;;;;13.50;8.50;;;;;;;14.63;97.35;101530.80;105201;1257;75667;-63
2023/09/07 06:32:41;;;;;;;11.30;8.00;;;;;;;14.76;97.53;101531.23;105173;1260;83572;-63
2023/09/07 06:35:10;;;;;;;10.40;8.90;;;;;;;14.87;97.78;101529.91;105179;1256;72673;-63
2023/09/07 06:37:40;;;;;;;11.10;9.00;;;;;;;15.00;97.97;101534.89;105152;1256;69186;-63
2023/09/07 06:40:09;;;;;;;11.90;9.00;;;;;;;15.12;97.89;101535.67;105171;1256;69254;-63
2023/09/07 06:42:37;;;;;;;11.80;8.00;;;;;;;15.23;97.77;101536.86;105143;1260;75746;-63
2023/09/07 06:45:09;;;;;;;10.70;8.40;;;;;;;15.33;97.67;101541.72;105200;1260;83208;-63
2023/09/07 06:47:37;;;;;;;11.70;8.80;;;;;;;15.45;97.85;101541.98;105120;1256;72635;-63
2023/09/07 06:50:06;;;;;;;10.80;9.00;;;;;;;15.58;97.84;101544.64;105137;1260;69256;-63
2023/09/07 06:52:33;;;;;;;12.10;8.90;;;;;;;15.70;97.87;101545.05;105228;1256;69103;-63
2023/09/07 06:55:01;;;;;;;11.50;8.70;;;;;;;15.83;97.78;101545.44;105238;1257;75861;-62
2023/09/07 06:57:28;;;;;;;12.50;8.80;;;;;;;15.95;97.66;101544.44;105202;1256;83331;-63
2023/09/07 06:59:56;;;;;;;11.00;8.60;;;;;;;16.09;97.63;101546.63;105201;1256;73725;-63
2023/09/07 07:02:23;;;;;;;12.50;9.30;;;;;;;16.25;97.46;101546.35;105224;1258;69204;-63
2023/09/07 07:04:50;;;;;;;11.50;8.70;;;;;;;16.41;97.24;101550.78;105124;1259;69125;-63
2023/09/07 07:07:18;;;;;;;12.30;9.30;;;;;;;16.55;96.86;101551.21;105217;1256;75513;-63
2023/09/07 07:09:45;;;;;;;12.00;9.80;;;;;;;16.69;96.56;101554.82;105215;1257;82521;-63
2023/09/07 07:12:12;;;;;;;10.50;8.30;;;;;;;16.83;96.13;101556.37;105182;1256;73857;-63
2023/09/07 07:14:40;;;;;;;12.90;8.60;;;;;;;16.97;95.64;101556.81;105221;1257;69134;-63
2023/09/07 07:17:07;;;;;;;11.70;8.90;;;;;;;17.11;95.48;101557.05;105234;1257;69217;-63
2023/09/07 07:19:35;;;;;;;11.50;9.40;;;;;;;17.24;95.36;101557.33;105230;1256;74489;-61
2023/09/07 07:22:03;;;;;;;13.10;9.40;;;;;;;17.38;95.08;101557.40;105238;1260;83070;-61
2023/09/07 07:24:32;;;;;;;13.90;8.80;;;;;;;17.49;94.52;101560.58;105168;1260;73260;-61
2023/09/07 07:27:00;;;;;;;10.50;8.90;;;;;;;17.62;94.25;101563.83;105190;1260;69155;-62
2023/09/07 07:29:29;;;;;;;11.10;8.70;;;;;;;17.74;93.81;101565.23;105173;1260;69206;-63
2023/09/07 07:32:00;;;;;;;13.20;9.60;;;;;;;17.85;93.48;101563.11;105201;1257;75566;-63
2023/09/07 07:34:27;;;;;;;10.50;8.60;;;;;;;17.98;93.57;101567.26;105195;1260;83919;-63
2023/09/07 07:36:55;;;;;;;10.60;9.00;;;;;;;18.14;93.37;101567.71;105183;1256;72637;-63
2023/09/07 07:39:23;;;;;;;11.30;8.90;;;;;;;18.24;92.70;101567.20;105181;1256;69832;-63
2023/09/07 07:41:50;;;;;;;12.10;8.40;;;;;;;18.36;92.64;101567.99;105239;1256;69173;-63
2023/09/07 07:44:18;;;;;;;9.90;8.10;;;;;;;18.50;92.62;101566.36;105248;1257;73669;-63
2023/09/07 07:46:45;;;;;;;11.50;9.10;;;;;;;18.66;92.32;101566.41;105172;1260;83494;-61
2023/09/07 07:49:14;;;;;;;11.20;8.10;;;;;;;18.84;92.47;101567.11;105162;1260;73664;-61
2023/09/07 07:51:42;;;;;;;10.30;7.80;;;;;;;19.03;92.12;101567.17;105215;1256;69102;-61
2023/09/07 07:54:09;;;;;;;11.10;7.40;;;;;;;19.20;91.91;101566.43;105351;1256;69281;-61
2023/09/07 07:56:39;;;;;;;8.30;7.20;;;;;;;19.38;91.52;101566.70;104924;1256;301575;-61
2023/09/07 07:59:07;;;;;;;11.30;7.70;;;;;;;19.55;91.08;101569.60;105368;1257;83222;-61
2023/09/07 08:01:34;;;;;;;10.10;7.30;;;;;;;19.73;90.55;101567.24;105181;1260;73563;-61
2023/09/07 08:04:01;;;;;;;8.50;7.10;;;;;;;19.86;89.89;101566.67;105206;1258;69218;-61
2023/09/07 08:06:31;;;;;;;10.30;6.90;;;;;;;19.96;89.28;101566.64;105146;1256;69182;-61
2023/09/07 08:08:58;;;;;;;8.50;6.70;;;;;;;20.12;89.39;101572.08;105175;1257;73701;-61
2023/09/07 08:11:27;;;;;;;10.10;6.70;;;;;;;20.32;89.16;101571.98;105126;1256;81526;-61
2023/09/07 08:13:54;;;;;;;8.30;6.40;;;;;;;20.51;88.34;101573.13;105165;1257;72714;-61
2023/09/07 08:16:21;;;;;;;9.30;6.20;;;;;;;20.72;87.81;101567.07;105228;1256;69190;-61
2023/09/07 08:18:50;;;;;;;8.90;6.20;;;;;;;20.94;87.48;101566.98;105192;1260;69292;-61
2023/09/07 08:21:18;;;;;;;8.80;6.20;;;;;;;21.14;86.97;101560.95;105178;1256;74870;-61
2023/09/07 08:23:45;;;;;;;8.20;6.40;;;;;;;21.32;86.00;101563.55;105249;1260;83238;-61
2023/09/07 08:26:14;;;;;;;9.30;6.40;;;;;;;21.50;85.39;101561.89;105188;1257;72616;-63
2023/09/07 08:28:46;;;;;;;10.30;6.40;;;;;;;21.69;85.04;101559.73;105212;1257;69114;-61
2023/09/07 08:31:20;;;;;;;9.90;6.50;;;;;;;21.89;84.39;101558.27;105241;1260;69116;-61
2023/09/07 08:33:50;;;;;;;7.80;6.10;;;;;;;22.09;83.89;101560.10;105199;1256;75487;-61
2023/09/07 08:36:17;;;;;;;;;;;;;;;22.30;83.14;101559.84;105229;1260;83677;-61
2023/09/07 08:38:44;;;;;;;7.70;6.50;;;;;;;22.46;81.82;101557.83;105154;1256;73531;-61
2023/09/07 08:41:13;;;;;;;8.10;5.90;;;;;;;22.63;80.80;101558.06;105257;1256;69133;-61
2023/09/07 08:43:46;;;;;;;7.30;6.00;;;;;;;22.82;80.20;101559.44;105123;1261;69182;-61
2023/09/07 08:46:20;;;;;;;7.60;6.20;;;;;;;22.98;79.02;101555.63;105220;1256;74806;-61
2023/09/07 08:48:48;;;;;;;7.30;5.80;;;;;;;23.12;78.31;101551.80;105233;1257;82354;-61
2023/09/07 08:51:16;;;;;;;6.40;5.60;;;;;;;23.26;77.73;101553.29;105138;1258;73993;-62
2023/09/07 08:53:46;;;;;;;7.80;5.60;;;;;;;23.42;77.17;101550.92;105132;1257;69180;-61
2023/09/07 08:56:13;;;;;;;8.40;5.70;;;;;;;23.54;76.14;101554.44;105154;1260;69205;-62
2023/09/07 08:58:41;;;;;;;9.50;5.50;;;;;;;23.67;75.35;101552.82;105195;1256;75533;-61
2023/09/07 09:01:08;;;;;;;7.60;5.80;;;;;;;23.76;74.66;101556.09;105255;1256;83492;-63
2023/09/07 09:03:36;;;;;;;8.00;5.50;;;;;;;23.88;74.04;101552.55;105223;1257;72676;-61
2023/09/07 09:06:07;;;;;;;8.00;5.40;;;;;;;24.01;73.32;101555.80;105219;1256;69170;-61
2023/09/07 09:08:45;;;;;;;6.10;4.80;;;;;;;24.17;72.52;101555.33;105172;1260;69127;-62
2023/09/07 09:11:12;;;;;;;6.10;5.00;;;;;;;24.32;71.48;101557.06;105254;1260;75825;-61
2023/09/07 09:13:41;;;;;;;6.20;4.90;;;;;;;24.44;70.94;101559.92;105144;1260;83341;-62
2023/09/07 09:16:08;;;;;;;6.90;5.80;;;;;;;24.54;69.98;101560.20;105213;1256;73506;-62
2023/09/07 09:18:37;;;;;;;6.40;5.10;;;;;;;24.66;69.71;101560.89;105190;1257;69183;-62
2023/09/07 09:21:05;;;;;;;8.60;5.60;;;;;;;24.79;68.76;101560.76;105178;1256;69159;-62
2023/09/07 09:23:36;;;;;;;6.60;5.30;;;;;;;24.92;68.09;101562.75;105186;1256;75682;-62
2023/09/07 09:26:05;;;;;;;7.50;5.80;;;;;;;25.08;67.83;101562.58;105309;1260;82726;-62
2023/09/07 09:28:32;;;;;;;7.10;5.20;;;;;;;25.23;67.06;101561.26;105203;1257;73957;-62
2023/09/07 09:31:02;;;;;;;7.00;5.50;;;;;;;25.37;66.47;101558.98;105359;1260;69205;-62
2023/09/07 09:33:33;;;;;;;6.50;5.40;;;;;;;25.47;65.90;101563.93;105219;1260;69136;-62
2023/09/07 09:36:00;;;;;;;7.90;5.70;;;;;;;25.63;65.37;101560.48;105223;1256;75754;-62
2023/09/07 09:38:27;;;;;;;9.00;5.90;;;;;;;25.77;64.75;101563.20;105234;1257;82178;-62
2023/09/07 09:40:55;;;;;;;8.00;6.00;;;;;;;25.91;64.55;101558.20;105191;1256;73508;-62
2023/09/07 09:43:22;;;;;;;8.90;5.70;;;;;;;26.05;63.70;101560.05;105093;1258;69245;-62
2023/09/07 09:45:53;;;;;;;8.00;5.60;;;;;;;26.17;63.02;101564.45;105249;1260;69214;-62
2023/09/07 09:48:23;;;;;;;6.70;5.10;;;;;;;26.26;62.18;101561.67;105170;1257;75566;-62
2023/09/07 09:50:50;;;;;;;7.30;5.80;;;;;;;26.34;61.65;101561.89;105211;1260;83357;-62
2023/09/07 09:53:20;;;;;;;6.20;5.60;;;;;;;26.50;61.35;101559.98;105212;1256;72662;-62
2023/09/07 09:55:47;;;;;;;7.40;5.50;;;;;;;26.61;60.90;101552.73;105211;1257;69191;-62
2023/09/07 09:58:16;;;;;;;8.00;5.40;;;;;;;26.73;60.65;101551.32;105246;1260;69152;-62
2023/09/07 10:00:44;;;;;;;9.30;6.10;;;;;;;26.88;60.28;101550.23;105191;1257;75639;-62
2023/09/07 10:03:30;;;;;;;6.80;5.00;;;;;;;26.95;59.41;101546.81;105206;1260;83380;-62
2023/09/07 10:06:10;;;;;;;13.20;5.30;;;;;;;27.07;59.13;101547.85;105195;1256;73686;-62
2023/09/07 10:08:37;;;;;;;8.50;5.90;;;;;;;27.28;58.65;101543.66;105161;1256;69276;-62
2023/09/07 10:11:11;;;;;;;8.90;5.40;;;;;;;27.47;57.90;101540.02;105108;1260;69308;-62
2023/09/07 10:13:38;;;;;;;6.90;5.00;;;;;;;27.68;57.50;101538.80;105198;1256;74664;-62
2023/09/07 10:16:09;;;;;;;7.90;5.20;;;;;;;27.92;56.85;101539.34;105133;1260;83337;-62
2023/09/07 10:18:38;;;;;;;6.50;5.30;;;;;;;28.11;56.30;101541.98;105149;1256;73837;-62
2023/09/07 10:21:06;;;;;;;6.80;5.30;;;;;;;28.28;55.82;101542.60;105168;1256;69064;-62
2023/09/07 10:23:39;;;;;;;10.90;5.20;;;;;;;28.52;55.43;101541.08;105161;1260;69285;-62
2023/09/07 10:26:11;;;;;;;7.30;4.80;;;;;;;28.71;54.60;101538.48;105165;1257;75610;-62
2023/09/07 10:28:38;;;;;;;5.20;4.70;;;;;;;28.91;54.11;101537.16;105176;1260;83448;-62
2023/09/07 10:31:07;;;;;;;6.40;5.10;;;;;;;29.06;53.66;101537.83;105179;1256;74223;-62
2023/09/07 10:33:35;;;;;;;6.40;4.90;;;;;;;29.21;53.06;101531.53;105168;1256;69102;-62
2023/09/07 10:36:04;;;;;;;5.90;4.70;;;;;;;29.33;52.30;101528.55;105208;1256;69247;-62
2023/09/07 10:38:32;;;;;;;7.10;5.00;;;;;;;29.51;51.90;101530.39;105210;1260;75858;-62
2023/09/07 10:41:01;;;;;;;9.30;5.50;;;;;;;29.59;50.82;101530.30;105190;1257;83337;-62
2023/09/07 10:43:30;;;;;;;7.60;5.40;;;;;;;29.66;50.83;101532.53;105171;1257;73509;-62
2023/09/07 10:46:00;;;;;;;6.60;4.80;;;;;;;29.80;50.79;101528.35;105135;1260;69140;-62
2023/09/07 10:48:30;;;;;;;;;;;;;;;30.00;50.02;101524.36;105195;1256;69151;-62
2023/09/07 10:50:58;;;;;;;6.00;5.10;;;;;;;30.07;49.17;101518.49;105219;1256;75893;-62
2023/09/07 10:53:27;;;;;;;8.20;5.00;;;;;;;30.16;48.65;101521.13;105173;1256;83139;-62
2023/09/07 10:55:56;;;;;;;6.00;4.70;;;;;;;30.21;48.56;101523.48;105179;1257;72716;-63
2023/09/07 10:58:30;;;;;;;10.20;4.90;;;;;;;30.27;47.85;101520.16;105358;1260;69263;-62
2023/09/07 11:00:58;;;;;;;5.90;4.50;;;;;;;30.33;47.47;101516.69;105216;1260;69266;-62
2023/09/07 11:03:26;;;;;;;7.00;4.60;;;;;;;30.42;47.47;101508.73;105304;1256;74568;-62
2023/09/07 11:06:03;;;;;;;8.70;4.60;;;;;;;30.55;46.91;101510.25;105234;1260;83146;-62
2023/09/07 11:08:30;;;;;;;7.00;4.70;;;;;;;30.63;46.26;101508.54;105175;1257;73679;-62
2023/09/07 11:10:57;;;;;;;4.70;3.80;;;;;;;30.66;45.66;101503.15;105172;1257;69167;-62
2023/09/07 11:13:25;;;;;;;5.70;4.20;;;;;;;30.67;45.46;101497.84;105175;1261;69514;-62
2023/09/07 11:15:57;;;;;;;5.50;4.20;;;;;;;30.84;45.74;101503.06;105289;1256;74472;-62
2023/09/07 11:18:25;;;;;;;6.60;4.20;;;;;;;31.01;45.20;101500.52;105155;1256;83525;-62